KTXK/TXK METAR and TAF weather

Enter ICAO airport designator
Station Type Date Time Source
KTXK METAR 2021/08/04 17:53 UTC NOAA

KTXK 041753Z VRB03KT 10SM CLR 29/18 A3007 RMK AO2 SLP178 T02940183 10300 20211 58003


Station Type Date Time Source
KTXK Decoded METAR 2021/08/04 17:53 UTC NOAA

TEXARKANA RGNL WEBB FIELD, AR, United States (KTXK) 33-27N 093-59W 111M
Aug 04, 2021 - 01:53 PM EDT / 2021.08.04 1753 UTC
Wind: Variable at 3 MPH (3 KT):0
Visibility: 10 mile(s):0
Sky conditions: clear
Temperature: 84.9 F (29.4 C)
Dew Point: 64.9 F (18.3 C)
Relative Humidity: 51%
Pressure (altimeter): 30.07 in. Hg (1018 hPa)
Pressure tendency: 0.01 inches (0.3 hPa) lower than three hours ago
ob: KTXK 041753Z VRB03KT 10SM CLR 29/18 A3007 RMK AO2 SLP178 T02940183 10300 20211 58003
cycle: 18

Station Type Date Time Source
KTXK TAF 2021/08/04 18:42 UTC NOAA

TAF KTXK 041739Z 0418/0518 07006KT P6SM FEW250
FM050100 09003KT P6SM SCT250
FM051500 10004KT P6SM BKN250

Example: see airport list